Time;durP1;ratioP1;P1;durP2;ratioP2;P2;SDS_P1;SDS_P2;PMS_P1;PMS_P2;Temp;Humidity;BMP_temperature;BMP_pressure;BME280_temperature;BME280_humidity;BME280_pressure;Samples;Min_cycle;Max_cycle;Signal;HPM_P1;HPM_P2
2021/03/05 00:00:11;;;;;;;12.65;3.97;;;4.50;99.90;;;;;;5035515;28;20036;-65
2021/03/05 00:02:37;;;;;;;10.45;2.85;;;4.50;99.90;;;;;;5037931;28;20567;-65
2021/03/05 00:05:03;;;;;;;8.77;3.22;;;4.40;99.90;;;;;;5036096;28;20127;-65
2021/03/05 00:07:29;;;;;;;11.30;3.10;;;4.50;99.90;;;;;;5039100;28;20667;-66
2021/03/05 00:09:55;;;;;;;8.82;2.75;;;4.40;99.90;;;;;;5034331;28;20040;-67
2021/03/05 00:12:20;;;;;;;6.47;3.22;;;4.40;99.90;;;;;;5034748;28;20029;-65
2021/03/05 00:14:46;;;;;;;9.77;3.40;;;4.40;99.90;;;;;;5038762;28;20037;-65
2021/03/05 00:17:11;;;;;;;7.95;3.25;;;4.40;99.90;;;;;;5039917;28;20061;-66
2021/03/05 00:19:38;;;;;;;7.07;3.42;;;4.40;99.90;;;;;;5038435;28;20040;-65
2021/03/05 00:22:05;;;;;;;7.40;3.05;;;4.40;99.90;;;;;;5038039;28;20049;-66
2021/03/05 00:24:31;;;;;;;7.35;3.10;;;4.40;99.90;;;;;;5041309;28;20057;-65
2021/03/05 00:26:57;;;;;;;9.13;2.65;;;4.30;99.90;;;;;;5035744;28;20119;-65
2021/03/05 00:29:22;;;;;;;5.45;2.45;;;4.30;99.90;;;;;;5036278;28;20029;-65
2021/03/05 00:31:48;;;;;;;10.32;3.47;;;4.30;99.90;;;;;;5039616;28;20025;-65
2021/03/05 00:34:13;;;;;;;6.63;2.15;;;4.20;99.90;;;;;;5025600;28;548260;-65
2021/03/05 00:36:39;;;;;;;7.07;2.67;;;4.20;99.90;;;;;;5040144;28;20051;-65
2021/03/05 00:39:05;;;;;;;7.90;3.00;;;4.10;99.90;;;;;;5035709;28;20116;-65
2021/03/05 00:41:31;;;;;;;7.32;2.80;;;4.10;99.90;;;;;;5041590;28;20056;-66
2021/03/05 00:43:56;;;;;;;9.15;3.10;;;4.00;99.90;;;;;;5038239;28;20484;-66
2021/03/05 00:46:22;;;;;;;4.45;2.50;;;3.90;99.90;;;;;;5039035;28;20038;-65
2021/03/05 00:48:47;;;;;;;10.18;3.20;;;3.80;99.90;;;;;;5039008;28;20393;-66
2021/03/05 00:51:13;;;;;;;6.43;3.35;;;3.80;99.90;;;;;;5037944;28;20051;-66
2021/03/05 00:53:39;;;;;;;12.23;3.45;;;3.70;99.90;;;;;;5040111;28;20048;-66
2021/03/05 00:56:05;;;;;;;8.30;3.40;;;3.70;99.90;;;;;;5035755;28;20067;-66
2021/03/05 00:58:30;;;;;;;6.75;2.58;;;3.60;99.90;;;;;;5033407;28;20068;-66
2021/03/05 01:00:56;;;;;;;10.30;3.63;;;3.50;99.90;;;;;;5036959;28;20048;-66
2021/03/05 01:03:21;;;;;;;9.02;3.15;;;3.50;99.90;;;;;;5034670;28;20029;-66
2021/03/05 01:05:47;;;;;;;6.93;3.03;;;3.40;99.90;;;;;;5038539;28;20489;-65
2021/03/05 01:08:12;;;;;;;7.15;3.20;;;3.40;99.90;;;;;;5036598;28;20116;-66
2021/03/05 01:10:39;;;;;;;6.90;2.92;;;3.40;99.90;;;;;;5039119;28;20553;-66
2021/03/05 01:13:04;;;;;;;7.95;3.03;;;3.40;99.90;;;;;;5038081;28;20025;-66
2021/03/05 01:15:30;;;;;;;8.23;3.22;;;3.30;99.90;;;;;;5036155;28;20029;-65
2021/03/05 01:17:55;;;;;;;8.88;3.42;;;3.30;99.90;;;;;;5039200;28;20116;-66
2021/03/05 01:20:23;;;;;;;9.98;3.58;;;3.20;99.90;;;;;;5035268;28;20022;-65
2021/03/05 01:22:49;;;;;;;8.48;2.92;;;3.20;99.90;;;;;;5038554;28;20385;-66
2021/03/05 01:25:18;;;;;;;6.60;3.17;;;3.10;99.90;;;;;;5030927;28;20036;-66
2021/03/05 01:27:44;;;;;;;13.02;3.85;;;3.10;99.90;;;;;;5032635;28;20433;-66
2021/03/05 01:30:10;;;;;;;9.70;3.47;;;3.00;99.90;;;;;;5038229;28;20033;-66
2021/03/05 01:32:36;;;;;;;11.43;4.60;;;3.00;99.90;;;;;;5037107;28;20033;-66
2021/03/05 01:35:09;;;;;;;6.15;3.15;;;2.90;99.90;;;;;;5035551;28;20090;-66
2021/03/05 01:37:35;;;;;;;10.98;3.55;;;3.00;99.90;;;;;;5037342;28;20041;-66
2021/03/05 01:40:01;;;;;;;10.20;4.03;;;3.00;99.90;;;;;;5038579;28;20036;-66
2021/03/05 01:42:27;;;;;;;8.70;3.97;;;2.90;99.90;;;;;;5037663;28;20038;-66
2021/03/05 01:44:52;;;;;;;9.65;2.97;;;2.90;99.90;;;;;;5038460;28;20039;-66
2021/03/05 01:47:18;;;;;;;10.63;3.70;;;2.90;99.90;;;;;;5037569;28;20071;-66
2021/03/05 01:49:43;;;;;;;11.35;3.45;;;2.90;99.90;;;;;;5039917;28;20033;-65
2021/03/05 01:52:09;;;;;;;6.88;3.65;;;2.90;99.90;;;;;;5038745;28;20037;-66
2021/03/05 01:54:34;;;;;;;9.15;3.20;;;2.80;99.90;;;;;;5038745;28;20033;-66
2021/03/05 01:57:00;;;;;;;9.35;3.58;;;2.80;99.90;;;;;;5037588;28;20037;-66
2021/03/05 01:59:31;;;;;;;9.88;3.75;;;2.80;99.90;;;;;;5038037;28;20037;-66
2021/03/05 02:02:04;;;;;;;10.90;3.42;;;2.80;99.90;;;;;;5040286;28;20150;-66
2021/03/05 02:04:29;;;;;;;11.65;4.25;;;2.80;99.90;;;;;;5042307;28;20034;-65
2021/03/05 02:06:55;;;;;;;9.82;3.88;;;2.70;99.90;;;;;;5040619;28;20026;-66
2021/03/05 02:09:20;;;;;;;11.80;5.03;;;2.80;99.90;;;;;;5041236;28;20560;-66
2021/03/05 02:11:46;;;;;;;10.30;3.95;;;2.80;99.90;;;;;;5037976;28;20030;-66
2021/03/05 02:14:13;;;;;;;9.35;3.65;;;2.80;99.90;;;;;;5033979;28;20048;-66
2021/03/05 02:16:55;;;;;;;11.43;3.72;;;2.80;99.90;;;;;;5039403;28;20037;-66
2021/03/05 02:20:11;;;;;;;8.98;4.00;;;2.70;99.90;;;;;;5035282;28;20030;-66
2021/03/05 02:23:16;;;;;;;11.98;4.35;;;2.70;99.90;;;;;;5017044;28;20034;-69
2021/03/05 02:26:11;;;;;;;12.27;5.07;;;2.70;99.90;;;;;;5033977;28;20044;-65
2021/03/05 02:29:04;;;;;;;9.70;3.85;;;2.80;99.90;;;;;;5029297;28;20555;-66
2021/03/05 02:32:03;;;;;;;14.32;3.80;;;2.70;99.90;;;;;;5035992;28;20041;-66
2021/03/05 02:34:33;;;;;;;14.05;3.90;;;2.70;99.90;;;;;;5018022;23;20067;-65
2021/03/05 02:37:09;;;;;;;16.75;4.35;;;2.70;99.90;;;;;;4996723;28;20026;-65
2021/03/05 02:39:46;;;;;;;9.55;3.22;;;2.70;99.90;;;;;;4999209;28;20096;-65
2021/03/05 02:42:26;;;;;;;7.90;2.88;;;2.80;99.90;;;;;;4985506;28;20034;-65
2021/03/05 02:45:03;;;;;;;6.82;3.13;;;2.70;99.90;;;;;;5002775;28;20046;-65
2021/03/05 02:47:32;;;;;;;10.18;2.83;;;2.80;99.90;;;;;;4981611;28;20423;-65
2021/03/05 02:49:59;;;;;;;12.57;2.75;;;2.70;99.90;;;;;;4987900;28;20050;-65
2021/03/05 02:52:27;;;;;;;9.90;3.00;;;2.80;99.90;;;;;;4990161;28;20027;-65
2021/03/05 02:54:56;;;;;;;12.40;3.17;;;2.70;99.90;;;;;;4991345;28;20069;-65
2021/03/05 02:57:26;;;;;;;5.63;1.98;;;2.70;99.90;;;;;;4990716;28;20045;-65
2021/03/05 02:59:52;;;;;;;17.05;2.38;;;2.70;99.90;;;;;;4991693;28;20057;-65
2021/03/05 03:02:23;;;;;;;12.02;2.45;;;2.60;99.90;;;;;;4992652;28;20030;-65
2021/03/05 03:04:51;;;;;;;18.20;2.83;;;2.60;99.90;;;;;;4992651;28;20038;-64
2021/03/05 03:07:17;;;;;;;12.55;2.60;;;2.60;99.90;;;;;;5001968;28;20047;-66
2021/03/05 03:09:43;;;;;;;19.20;3.22;;;2.60;99.90;;;;;;5002706;28;20521;-65
2021/03/05 03:12:10;;;;;;;14.52;2.55;;;2.70;99.90;;;;;;4996135;28;20030;-65
2021/03/05 03:14:40;;;;;;;12.02;2.63;;;2.60;99.90;;;;;;4999500;28;20026;-65
2021/03/05 03:17:08;;;;;;;17.88;3.85;;;2.60;99.90;;;;;;4997207;28;20034;-65
2021/03/05 03:19:34;;;;;;;12.00;2.33;;;2.60;99.90;;;;;;4992169;28;20034;-68
2021/03/05 03:22:01;;;;;;;4.88;1.55;;;2.50;99.90;;;;;;4992965;28;20038;-65
2021/03/05 03:24:27;;;;;;;12.77;2.00;;;2.50;99.90;;;;;;4996678;28;20402;-66
2021/03/05 03:26:53;;;;;;;14.05;2.10;;;2.50;99.90;;;;;;5000314;28;20037;-66
2021/03/05 03:29:18;;;;;;;14.57;2.25;;;2.50;99.90;;;;;;5001714;28;20391;-65
2021/03/05 03:31:44;;;;;;;8.00;2.00;;;2.50;99.90;;;;;;5002992;28;20034;-65
2021/03/05 03:34:11;;;;;;;16.38;1.92;;;2.50;99.90;;;;;;4994859;28;20423;-65
2021/03/05 03:36:38;;;;;;;8.40;2.22;;;2.50;99.90;;;;;;4991033;28;20034;-67
2021/03/05 03:39:09;;;;;;;6.43;1.50;;;2.50;99.90;;;;;;4991445;28;20031;-65
2021/03/05 03:41:37;;;;;;;9.40;1.95;;;2.40;99.90;;;;;;4991198;28;20031;-65
2021/03/05 03:44:08;;;;;;;9.48;3.28;;;2.40;99.90;;;;;;4989238;28;20632;-65
2021/03/05 03:46:37;;;;;;;16.70;2.35;;;2.50;99.90;;;;;;4991279;28;20034;-65
2021/03/05 03:49:09;;;;;;;13.43;1.55;;;2.40;99.90;;;;;;4989648;28;20034;-65
2021/03/05 03:51:42;;;;;;;11.50;1.70;;;2.40;99.90;;;;;;4991001;28;20049;-65
2021/03/05 03:54:08;;;;;;;9.30;2.63;;;2.30;99.90;;;;;;4966188;28;20030;-65
2021/03/05 03:56:36;;;;;;;9.77;1.90;;;2.30;99.90;;;;;;4991165;28;20113;-65
2021/03/05 03:59:02;;;;;;;9.45;1.50;;;2.30;99.90;;;;;;4991024;28;20165;-65
2021/03/05 04:01:30;;;;;;;16.42;2.67;;;2.20;99.90;;;;;;4994327;28;20606;-65
2021/03/05 04:03:58;;;;;;;6.63;1.23;;;2.20;99.90;;;;;;4991292;28;20034;-65
2021/03/05 04:06:26;;;;;;;8.02;1.70;;;2.30;99.90;;;;;;4991585;28;20053;-65
2021/03/05 04:08:53;;;;;;;11.98;1.67;;;2.30;99.90;;;;;;4990808;28;20128;-65
2021/03/05 04:11:21;;;;;;;8.40;1.95;;;2.30;99.90;;;;;;4991543;28;20049;-65
2021/03/05 04:13:47;;;;;;;14.18;2.03;;;2.20;99.90;;;;;;4992404;28;20042;-66
2021/03/05 04:16:13;;;;;;;17.10;1.83;;;2.10;99.90;;;;;;4996375;28;20057;-65
2021/03/05 04:18:40;;;;;;;11.38;1.45;;;2.10;99.90;;;;;;4996914;28;20038;-65
2021/03/05 04:21:34;;;;;;;7.78;1.42;;;2.10;99.90;;;;;;4978634;28;20627;-65
2021/03/05 04:24:00;;;;;;;8.27;2.03;;;2.10;99.90;;;;;;4988723;28;20046;-65
2021/03/05 04:26:25;;;;;;;14.55;2.53;;;2.10;99.90;;;;;;4997375;28;20069;-66
2021/03/05 04:28:51;;;;;;;12.23;1.90;;;2.20;99.90;;;;;;4997118;28;20099;-65
2021/03/05 04:31:16;;;;;;;9.70;1.75;;;2.30;99.90;;;;;;4996454;28;20053;-65
2021/03/05 04:33:42;;;;;;;12.68;1.33;;;2.30;99.90;;;;;;4998111;28;20057;-65
2021/03/05 04:36:07;;;;;;;14.38;1.58;;;2.40;99.90;;;;;;4997811;28;20041;-65
2021/03/05 04:38:33;;;;;;;8.48;1.10;;;2.30;99.90;;;;;;4986675;28;20395;-66
2021/03/05 04:40:59;;;;;;;14.15;1.95;;;2.30;99.90;;;;;;4996773;28;20177;-65
2021/03/05 04:43:25;;;;;;;14.60;1.88;;;2.30;99.90;;;;;;4997110;28;20045;-65
2021/03/05 04:45:50;;;;;;;7.80;1.45;;;2.30;99.90;;;;;;4995468;28;20173;-66
2021/03/05 04:48:16;;;;;;;15.80;2.00;;;2.20;99.90;;;;;;4987819;28;20512;-64
2021/03/05 04:50:42;;;;;;;10.40;2.15;;;2.20;99.90;;;;;;4989483;28;20038;-65
2021/03/05 04:53:07;;;;;;;13.55;1.02;;;2.20;99.90;;;;;;4988550;28;20069;-64
2021/03/05 04:55:33;;;;;;;14.32;2.40;;;2.20;99.90;;;;;;4989302;28;20030;-65
2021/03/05 04:57:59;;;;;;;12.45;1.73;;;2.20;99.90;;;;;;4989845;28;20038;-65
2021/03/05 05:00:25;;;;;;;12.32;2.35;;;2.10;99.90;;;;;;4990090;28;20518;-65
2021/03/05 05:02:50;;;;;;;7.82;1.25;;;2.00;99.90;;;;;;4989123;28;20786;-65
2021/03/05 05:05:16;;;;;;;10.40;1.23;;;1.90;99.90;;;;;;4988279;28;20427;-65
2021/03/05 05:07:42;;;;;;;13.88;1.92;;;1.90;99.90;;;;;;4988918;28;20046;-65
2021/03/05 05:10:08;;;;;;;6.13;1.30;;;1.80;99.90;;;;;;4989622;28;20129;-65
2021/03/05 05:12:34;;;;;;;15.55;1.42;;;1.80;99.90;;;;;;4988906;28;20043;-65
2021/03/05 05:15:00;;;;;;;12.27;1.55;;;1.80;99.90;;;;;;4988750;28;20082;-65
2021/03/05 05:17:25;;;;;;;13.23;1.80;;;1.80;99.90;;;;;;4989286;28;20447;-64
2021/03/05 05:19:51;;;;;;;5.78;1.27;;;1.80;99.90;;;;;;4987483;28;20542;-64
2021/03/05 05:22:16;;;;;;;4.28;1.13;;;1.70;99.90;;;;;;4989047;28;20091;-64
2021/03/05 05:24:42;;;;;;;8.35;1.25;;;1.60;99.90;;;;;;4987401;28;20030;-65
2021/03/05 05:27:07;;;;;;;9.63;1.92;;;1.60;99.90;;;;;;4987569;28;20023;-65
2021/03/05 05:29:33;;;;;;;11.40;1.92;;;1.60;99.90;;;;;;4989037;28;20061;-65
2021/03/05 05:31:58;;;;;;;3.67;1.00;;;1.50;99.90;;;;;;4986900;28;20096;-65
2021/03/05 05:34:24;;;;;;;9.35;1.08;;;1.50;99.90;;;;;;4988903;28;20034;-65
2021/03/05 05:36:49;;;;;;;6.97;1.27;;;1.50;99.90;;;;;;4988226;28;20043;-65
2021/03/05 05:39:15;;;;;;;15.70;1.40;;;1.60;99.90;;;;;;4987531;28;20109;-65
2021/03/05 05:41:41;;;;;;;5.28;1.35;;;1.50;99.90;;;;;;4988482;28;20038;-65
2021/03/05 05:44:07;;;;;;;5.20;1.30;;;1.50;99.90;;;;;;4988866;28;20747;-65
2021/03/05 05:46:33;;;;;;;12.57;1.75;;;1.50;99.90;;;;;;4988840;28;20038;-65
2021/03/05 05:48:59;;;;;;;11.38;1.40;;;1.50;99.90;;;;;;4978787;28;20034;-65
2021/03/05 05:51:33;;;;;;;12.77;2.17;;;1.40;99.90;;;;;;4988804;28;20023;-65
2021/03/05 05:54:08;;;;;;;8.43;1.50;;;1.40;99.90;;;;;;4988664;28;20031;-65
2021/03/05 05:56:36;;;;;;;15.05;2.83;;;1.30;99.90;;;;;;4981997;28;20062;-65
2021/03/05 05:59:01;;;;;;;9.85;1.45;;;1.30;99.90;;;;;;4981078;28;20030;-65
2021/03/05 06:01:31;;;;;;;7.75;1.88;;;1.20;99.90;;;;;;4987251;28;20034;-65
2021/03/05 06:04:00;;;;;;;4.05;1.15;;;1.20;99.90;;;;;;4988115;28;20442;-65
2021/03/05 06:06:26;;;;;;;12.15;1.35;;;1.20;99.90;;;;;;4988376;28;20466;-65
2021/03/05 06:08:51;;;;;;;11.25;2.13;;;1.10;99.90;;;;;;4988303;28;20031;-64
2021/03/05 06:11:17;;;;;;;23.13;2.55;;;1.10;99.90;;;;;;4987940;28;20026;-65
2021/03/05 06:13:43;;;;;;;7.65;1.52;;;1.10;99.90;;;;;;4988210;28;20050;-64
2021/03/05 06:16:15;;;;;;;11.88;1.67;;;1.00;99.90;;;;;;4986505;28;20073;-64
2021/03/05 06:18:41;;;;;;;12.90;1.92;;;1.00;99.90;;;;;;4987179;28;20038;-64
2021/03/05 06:21:08;;;;;;;7.63;1.65;;;1.00;99.90;;;;;;4986578;28;20030;-65
2021/03/05 06:23:35;;;;;;;6.22;1.77;;;1.00;99.90;;;;;;4986914;28;20038;-65
2021/03/05 06:26:02;;;;;;;6.20;2.15;;;1.00;99.90;;;;;;4986747;28;20031;-65
2021/03/05 06:28:28;;;;;;;10.23;1.48;;;0.90;99.90;;;;;;4988001;28;20266;-65
2021/03/05 06:30:54;;;;;;;6.07;1.25;;;1.00;99.90;;;;;;4990931;28;20480;-66
2021/03/05 06:33:27;;;;;;;5.55;1.60;;;0.90;99.90;;;;;;4992187;28;20058;-65
2021/03/05 06:35:53;;;;;;;9.57;1.50;;;0.90;99.90;;;;;;4992871;28;20058;-65
2021/03/05 06:38:45;;;;;;;12.65;1.60;;;0.90;99.90;;;;;;4992259;28;20037;-66
2021/03/05 06:41:27;;;;;;;7.13;1.00;;;0.90;99.90;;;;;;4986282;28;20034;-66
2021/03/05 06:44:00;;;;;;;8.43;1.20;;;0.90;99.90;;;;;;4991041;28;20415;-65
2021/03/05 06:46:39;;;;;;;6.43;1.13;;;0.90;99.90;;;;;;4986740;28;20027;-65
2021/03/05 06:49:08;;;;;;;15.23;2.13;;;0.90;99.90;;;;;;4986623;28;20034;-65
2021/03/05 06:51:34;;;;;;;9.32;1.48;;;1.00;99.90;;;;;;4993103;28;20113;-65
2021/03/05 06:54:08;;;;;;;5.72;1.27;;;1.10;99.90;;;;;;4997057;28;20034;-66
2021/03/05 06:56:35;;;;;;;14.60;1.70;;;1.30;99.90;;;;;;4999219;28;20037;-65
2021/03/05 06:59:05;;;;;;;8.82;2.03;;;1.30;99.90;;;;;;4998532;28;20077;-66
2021/03/05 07:01:31;;;;;;;8.32;1.02;;;1.40;99.90;;;;;;4993707;28;20038;-65
2021/03/05 07:04:33;;;;;;;10.25;1.73;;;1.50;99.90;;;;;;4976764;28;20641;-65
2021/03/05 07:07:00;;;;;;;13.35;2.35;;;1.60;99.90;;;;;;4973277;28;20058;-66
2021/03/05 07:09:29;;;;;;;11.10;1.23;;;1.50;99.90;;;;;;4991224;28;20129;-66
2021/03/05 07:11:55;;;;;;;10.23;1.90;;;1.60;99.90;;;;;;4986835;28;20034;-66
2021/03/05 07:14:35;;;;;;;10.68;1.75;;;1.70;99.90;;;;;;4984809;28;20031;-66
2021/03/05 07:17:01;;;;;;;9.07;1.45;;;1.70;99.90;;;;;;4986979;28;20042;-65
2021/03/05 07:19:29;;;;;;;10.15;2.00;;;1.80;99.90;;;;;;4995937;28;20034;-66
2021/03/05 07:21:55;;;;;;;16.25;2.42;;;1.90;99.90;;;;;;4985023;28;20061;-65
2021/03/05 07:24:26;;;;;;;8.73;1.55;;;1.90;99.90;;;;;;4982811;28;20493;-66
2021/03/05 07:26:54;;;;;;;8.90;1.95;;;2.00;99.90;;;;;;4986621;28;20030;-65
2021/03/05 07:29:22;;;;;;;6.93;1.58;;;2.10;99.90;;;;;;4974956;28;20041;-65
2021/03/05 07:32:03;;;;;;;7.15;1.48;;;2.10;99.90;;;;;;4984969;28;20049;-66
2021/03/05 07:34:32;;;;;;;8.18;1.50;;;2.20;99.90;;;;;;4984795;28;20460;-65
2021/03/05 07:37:00;;;;;;;12.63;1.90;;;2.40;99.90;;;;;;4985469;28;20075;-66
2021/03/05 07:39:32;;;;;;;4.70;1.58;;;2.50;99.90;;;;;;4977660;28;20399;-66
2021/03/05 07:41:58;;;;;;;11.05;1.55;;;2.70;99.90;;;;;;4983120;28;20033;-66
2021/03/05 07:44:25;;;;;;;7.68;1.63;;;2.70;99.90;;;;;;4977861;28;20038;-65
2021/03/05 07:46:53;;;;;;;7.22;2.00;;;2.90;99.90;;;;;;4986598;28;20548;-65
2021/03/05 07:49:25;;;;;;;12.27;1.33;;;3.00;99.90;;;;;;4987747;28;20031;-65
2021/03/05 07:51:54;;;;;;;13.73;2.53;;;3.40;99.90;;;;;;4984060;28;20133;-66
2021/03/05 07:54:40;;;;;;;9.55;1.60;;;3.60;99.90;;;;;;4973310;28;20030;-65
2021/03/05 07:57:15;;;;;;;9.27;1.40;;;3.80;99.90;;;;;;4963277;28;20043;-65
2021/03/05 07:59:40;;;;;;;6.63;1.17;;;3.90;99.90;;;;;;4975886;28;20120;-65
2021/03/05 08:02:07;;;;;;;5.93;1.25;;;3.90;99.90;;;;;;4972783;28;20661;-65
2021/03/05 08:04:51;;;;;;;8.13;1.25;;;3.90;99.90;;;;;;4974589;28;20117;-66
2021/03/05 08:07:18;;;;;;;5.15;1.35;;;3.90;99.90;;;;;;4976100;28;20068;-65
2021/03/05 08:09:44;;;;;;;4.07;1.25;;;4.10;99.90;;;;;;4978615;28;20101;-65
2021/03/05 08:15:13;;;;;;;6.70;1.17;;;4.10;99.90;;;;;;4970975;28;20049;-65
2021/03/05 08:17:46;;;;;;;9.13;1.20;;;4.10;99.90;;;;;;4975084;28;20447;-64
2021/03/05 08:20:18;;;;;;;12.95;1.30;;;4.10;99.90;;;;;;4980865;28;20034;-65
2021/03/05 08:22:59;;;;;;;6.47;0.80;;;4.10;99.90;;;;;;4975920;28;20035;-63
2021/03/05 08:25:28;;;;;;;2.90;0.55;;;4.20;99.90;;;;;;4972020;28;20034;-65
2021/03/05 08:27:54;;;;;;;4.78;1.35;;;4.20;99.90;;;;;;4981303;28;20031;-65
2021/03/05 08:30:40;;;;;;;4.65;1.08;;;4.30;99.90;;;;;;4978331;28;20259;-64
2021/03/05 08:33:08;;;;;;;3.42;0.55;;;4.40;99.90;;;;;;4978381;28;20221;-64
2021/03/05 08:35:37;;;;;;;2.75;0.60;;;4.40;99.90;;;;;;4975340;28;20046;-65
2021/03/05 08:38:15;;;;;;;5.50;1.00;;;4.40;99.90;;;;;;4979410;28;20991;-65
2021/03/05 08:40:43;;;;;;;2.75;0.47;;;4.50;99.90;;;;;;4978146;28;20035;-65
2021/03/05 08:43:09;;;;;;;4.80;0.40;;;4.60;99.90;;;;;;4975302;28;20046;-65
2021/03/05 08:45:44;;;;;;;3.65;1.02;;;4.70;99.90;;;;;;4986434;28;20092;-65
2021/03/05 08:48:12;;;;;;;4.68;0.63;;;4.80;99.90;;;;;;4985387;28;20034;-65
2021/03/05 08:50:38;;;;;;;5.50;1.00;;;4.80;99.60;;;;;;4987314;28;20091;-65
2021/03/05 08:53:07;;;;;;;10.50;0.55;;;4.90;97.90;;;;;;4986300;28;20420;-64
2021/03/05 08:55:35;;;;;;;5.43;0.60;;;5.00;96.80;;;;;;4986003;28;20034;-64
2021/03/05 08:58:01;;;;;;;8.65;0.95;;;4.90;91.00;;;;;;4986232;28;20141;-65
2021/03/05 09:00:33;;;;;;;4.47;0.77;;;4.90;91.00;;;;;;4985250;28;20050;-65
2021/03/05 09:03:11;;;;;;;2.15;0.30;;;5.00;92.00;;;;;;4979175;28;20026;-65
2021/03/05 09:05:39;;;;;;;0.50;0.10;;;5.00;86.80;;;;;;4977674;28;20066;-64
2021/03/05 09:08:07;;;;;;;1.08;0.30;;;5.00;83.10;;;;;;4977684;28;20034;-64
2021/03/05 09:10:57;;;;;;;3.70;1.10;;;5.00;81.90;;;;;;4973134;28;20030;-65
2021/03/05 09:13:27;;;;;;;3.60;0.45;;;5.10;80.00;;;;;;4974218;28;20503;-65
2021/03/05 09:15:55;;;;;;;2.03;0.30;;;5.10;78.70;;;;;;4988198;28;20034;-64
2021/03/05 09:18:23;;;;;;;4.53;0.30;;;5.20;73.20;;;;;;4983443;28;20488;-64
2021/03/05 09:20:51;;;;;;;8.35;0.47;;;5.10;69.20;;;;;;4985543;28;20101;-65
2021/03/05 09:23:36;;;;;;;1.00;0.10;;;5.10;67.40;;;;;;4980874;28;20037;-64
2021/03/05 09:26:04;;;;;;;0.75;0.10;;;5.10;66.80;;;;;;4984948;28;20046;-65
2021/03/05 09:28:45;;;;;;;2.17;0.22;;;5.20;66.90;;;;;;4986296;28;20026;-64
2021/03/05 09:31:14;;;;;;;3.25;1.15;;;5.20;67.20;;;;;;4988944;28;20049;-64
2021/03/05 09:33:42;;;;;;;1.95;0.30;;;5.20;67.90;;;;;;4984898;28;20073;-65
2021/03/05 09:36:12;;;;;;;4.22;0.90;;;5.30;65.50;;;;;;4989039;28;20034;-65
2021/03/05 09:38:42;;;;;;;5.28;0.10;;;5.40;63.70;;;;;;4989051;28;20114;-65
2021/03/05 09:41:14;;;;;;;1.55;0.10;;;5.40;63.00;;;;;;4988383;28;20031;-65
2021/03/05 09:43:40;;;;;;;3.22;0.20;;;5.50;64.50;;;;;;4988832;28;20518;-65
2021/03/05 09:46:39;;;;;;;1.38;0.20;;;5.60;62.30;;;;;;4986964;28;20034;-65
2021/03/05 09:49:25;;;;;;;3.63;0.20;;;5.70;61.00;;;;;;4974365;28;20070;-64
2021/03/05 09:51:51;;;;;;;0.47;0.20;;;5.70;57.90;;;;;;5001490;28;20069;-65
2021/03/05 09:54:18;;;;;;;2.00;0.30;;;5.70;59.50;;;;;;5008178;28;20703;-65
2021/03/05 09:56:49;;;;;;;1.30;0.20;;;5.80;62.00;;;;;;5007665;28;20022;-65
2021/03/05 09:59:14;;;;;;;0.10;0.10;;;5.90;61.50;;;;;;5007756;28;20033;-65
2021/03/05 10:01:44;;;;;;;1.75;0.20;;;5.90;59.90;;;;;;5007466;28;20046;-65
2021/03/05 10:04:13;;;;;;;3.20;0.20;;;5.80;58.80;;;;;;5008434;28;20034;-65
2021/03/05 10:06:38;;;;;;;0.80;0.20;;;5.80;58.20;;;;;;4990305;28;20751;-65
2021/03/05 10:09:09;;;;;;;1.52;0.20;;;5.70;57.00;;;;;;5008288;28;20093;-64
2021/03/05 10:11:40;;;;;;;2.00;0.30;;;5.70;58.00;;;;;;5008109;28;20036;-64
2021/03/05 10:14:07;;;;;;;1.38;0.43;;;5.70;56.60;;;;;;5009127;28;20026;-64
2021/03/05 10:16:38;;;;;;;0.88;0.10;;;5.80;56.40;;;;;;5009916;28;20061;-65
2021/03/05 10:19:21;;;;;;;1.88;0.75;;;5.80;56.00;;;;;;4992326;28;20053;-65
2021/03/05 10:21:52;;;;;;;1.02;0.13;;;5.80;56.70;;;;;;5001142;28;20034;-64
2021/03/05 10:24:19;;;;;;;2.53;0.10;;;5.80;57.40;;;;;;5002110;28;20030;-64
2021/03/05 10:27:10;;;;;;;0.50;0.00;;;5.80;56.20;;;;;;5003124;28;20136;-64
2021/03/05 10:29:46;;;;;;;0.68;0.10;;;5.90;56.90;;;;;;4991726;28;20552;-64
2021/03/05 10:32:32;;;;;;;0.77;0.03;;;5.80;56.90;;;;;;5011547;28;20092;-64
2021/03/05 10:35:00;;;;;;;0.80;0.20;;;5.80;58.10;;;;;;5005790;28;20086;-64
2021/03/05 10:37:27;;;;;;;2.42;0.10;;;5.80;57.40;;;;;;5010193;28;20473;-65
2021/03/05 10:39:53;;;;;;;7.93;1.17;;;5.80;57.30;;;;;;4990376;28;20044;-64
2021/03/05 10:42:21;;;;;;;1.73;0.13;;;5.80;58.60;;;;;;4990936;28;20061;-64
2021/03/05 10:44:49;;;;;;;4.18;0.28;;;5.80;58.40;;;;;;5008208;28;20421;-64
2021/03/05 10:47:17;;;;;;;0.85;0.10;;;5.80;57.60;;;;;;4992674;28;20687;-64
2021/03/05 10:49:44;;;;;;;2.85;0.20;;;5.90;58.00;;;;;;5000278;28;20095;-64
2021/03/05 10:52:11;;;;;;;1.10;0.10;;;5.90;58.70;;;;;;5008472;28;20026;-64
2021/03/05 10:54:38;;;;;;;1.38;0.20;;;5.90;57.70;;;;;;5009910;28;20054;-64
2021/03/05 10:57:04;;;;;;;1.95;0.30;;;5.90;58.00;;;;;;5013825;28;20494;-64
2021/03/05 10:59:29;;;;;;;0.93;0.00;;;5.90;58.30;;;;;;5019452;28;20052;-64
2021/03/05 11:01:55;;;;;;;1.15;0.10;;;6.00;59.20;;;;;;5018466;28;20060;-65
2021/03/05 11:04:22;;;;;;;1.85;0.10;;;6.10;59.70;;;;;;5016518;28;20125;-64
2021/03/05 11:06:49;;;;;;;2.67;0.20;;;6.10;59.60;;;;;;5008470;28;20070;-64
2021/03/05 11:09:15;;;;;;;2.90;0.10;;;6.10;59.00;;;;;;4989893;28;20566;-65
2021/03/05 11:11:44;;;;;;;3.10;0.20;;;6.10;58.80;;;;;;4999379;28;20097;-64
2021/03/05 11:14:11;;;;;;;3.78;0.30;;;6.00;59.00;;;;;;5009308;28;20041;-64
2021/03/05 11:16:37;;;;;;;0.80;0.05;;;6.00;59.10;;;;;;5006622;28;20064;-64
2021/03/05 11:19:05;;;;;;;0.50;0.20;;;6.00;59.20;;;;;;5005698;28;20094;-65
2021/03/05 11:21:31;;;;;;;14.40;0.50;;;6.10;59.40;;;;;;5009928;28;20062;-65
2021/03/05 11:23:57;;;;;;;2.47;0.10;;;6.00;59.20;;;;;;5006572;28;20022;-65
2021/03/05 11:26:23;;;;;;;1.15;0.10;;;6.00;59.70;;;;;;5015118;28;20026;-65
2021/03/05 11:28:50;;;;;;;6.13;0.80;;;6.00;59.00;;;;;;5005567;28;20034;-65
2021/03/05 11:31:16;;;;;;;0.52;0.10;;;6.10;59.70;;;;;;5009926;28;20471;-64
2021/03/05 11:33:44;;;;;;;0.65;0.10;;;6.10;59.80;;;;;;5010541;28;20113;-64
2021/03/05 11:36:14;;;;;;;6.53;1.33;;;6.10;58.70;;;;;;5010159;28;20030;-64
2021/03/05 11:38:41;;;;;;;0.47;0.10;;;6.10;59.80;;;;;;5003083;28;20030;-64
2021/03/05 11:41:07;;;;;;;3.13;0.10;;;6.20;60.10;;;;;;5010522;28;20076;-65
2021/03/05 11:43:33;;;;;;;2.30;0.98;;;6.10;60.10;;;;;;5007450;28;20022;-64
2021/03/05 11:45:59;;;;;;;3.47;0.20;;;6.10;58.00;;;;;;5007315;28;20034;-64
2021/03/05 11:48:25;;;;;;;2.72;0.20;;;6.20;60.10;;;;;;5003097;28;20064;-64
2021/03/05 11:50:51;;;;;;;1.00;0.20;;;6.20;58.50;;;;;;5006961;28;20121;-64
2021/03/05 11:53:17;;;;;;;10.02;0.40;;;6.20;57.40;;;;;;4984561;28;20120;-64
2021/03/05 11:55:42;;;;;;;2.90;0.30;;;6.30;58.40;;;;;;4997083;28;20041;-64
2021/03/05 11:58:08;;;;;;;1.55;0.10;;;6.20;58.00;;;;;;4986269;28;20430;-64
2021/03/05 12:00:34;;;;;;;1.20;0.22;;;6.30;58.90;;;;;;5008612;28;20120;-64
2021/03/05 12:03:00;;;;;;;1.90;0.30;;;6.20;59.70;;;;;;4989990;28;20031;-64
2021/03/05 12:05:25;;;;;;;2.80;0.22;;;6.20;57.80;;;;;;5006681;28;20100;-64
2021/03/05 12:07:51;;;;;;;2.35;0.38;;;6.30;58.00;;;;;;4996730;28;20042;-64
2021/03/05 12:10:17;;;;;;;2.75;0.30;;;6.40;58.80;;;;;;4993562;28;20080;-65
2021/03/05 12:12:43;;;;;;;4.30;0.10;;;6.40;59.00;;;;;;4994858;28;20042;-64
2021/03/05 12:15:09;;;;;;;0.70;0.20;;;6.40;57.40;;;;;;5002134;28;20061;-64
2021/03/05 12:17:34;;;;;;;4.78;1.13;;;6.50;57.80;;;;;;4995813;28;20034;-64
2021/03/05 12:20:00;;;;;;;1.42;0.13;;;6.50;58.40;;;;;;4991982;28;20034;-64
2021/03/05 12:22:26;;;;;;;3.03;0.20;;;6.60;58.80;;;;;;4992976;28;20038;-64
2021/03/05 12:24:52;;;;;;;1.95;0.20;;;6.60;58.40;;;;;;4997064;28;20452;-64
2021/03/05 12:27:17;;;;;;;1.45;0.22;;;6.70;58.60;;;;;;4995239;28;20030;-64
2021/03/05 12:29:43;;;;;;;2.30;0.32;;;6.80;58.90;;;;;;5000025;28;20426;-64
2021/03/05 12:32:08;;;;;;;5.95;0.40;;;7.00;60.70;;;;;;4998304;28;20088;-64
2021/03/05 12:34:34;;;;;;;1.75;0.55;;;7.00;60.20;;;;;;5000889;28;20068;-65
2021/03/05 12:37:01;;;;;;;0.35;0.10;;;7.10;60.30;;;;;;5000669;28;20034;-64
2021/03/05 12:39:27;;;;;;;1.10;0.25;;;7.20;60.70;;;;;;4995951;28;20025;-64
2021/03/05 12:41:52;;;;;;;2.78;0.28;;;7.40;59.70;;;;;;5003265;28;20038;-64
2021/03/05 12:44:18;;;;;;;1.15;0.20;;;7.30;59.90;;;;;;4998193;28;20030;-65
2021/03/05 12:46:44;;;;;;;1.13;0.20;;;7.30;60.40;;;;;;4992983;28;20049;-65
2021/03/05 12:49:09;;;;;;;1.92;0.28;;;7.40;60.00;;;;;;5005174;28;20176;-65
2021/03/05 12:51:35;;;;;;;3.60;0.20;;;7.40;59.20;;;;;;5000561;28;20048;-65
2021/03/05 12:54:00;;;;;;;3.70;0.40;;;7.40;59.10;;;;;;5009087;28;20030;-65
2021/03/05 12:56:26;;;;;;;1.00;0.20;;;7.40;60.30;;;;;;5008496;28;20119;-65
2021/03/05 12:58:52;;;;;;;3.80;1.10;;;7.40;60.10;;;;;;5009172;28;20709;-65
2021/03/05 13:01:19;;;;;;;7.38;1.20;;;7.30;60.60;;;;;;5008532;28;20527;-65
2021/03/05 13:03:44;;;;;;;5.80;0.10;;;7.20;60.70;;;;;;4995740;28;20034;-65